Hauptseite
METAR-TAF:

METAR-TAF

Flughäfen :

Novara, Italien

Militärflugplatz Cameri

Breite: 45-31N, Länge: 008-40E, Höhe: 178 m

Beobachtung

Neuester Wetterbericht von vor 1 Stunde und 49 Minuten, um 17:55 UTC
Wind 2 kt aus West
Temperatur 3°C
Luftfeuchtigkeit 81%
Luftdruck 1013 hPa
Sichtweite 10 km oder mehr
keine Wolken unter 1500 m und keine Kumulonimbus oder Gewitterwolken

METAR: LIMN 221755Z 28002KT CAVOK 03/00 Q1013 RMK SKC VIS MIN 9999 BLU

Zeit: 20:44 (19:44 UTC)

Prognose

Neuester Wetterbericht von vor 2 Stunden und 44 Minuten, um 17:00 UTC
Gültige Prognose vom 22 um 18 UTC bis 23 um 03 UTC
Wind 5 kt aus unterschiedlichen Richtungen
Sichtweite 10 km oder mehr
Leicht bewölkt in der Höhe von 6000 ft
Wahrscheinlichkeit 40% :
Zeitweise
vom 22 um 21 UTC bis 23 um 03 UTC
Sichtweite: 4000 m
feuchter Dunst

TAF: LIMN 221700Z 2218/2303 VRB05KT 9999 FEW060 PROB40 TEMPO 2221/2303 4000 BR

Wetterbeobachtungen und Prognosen von mehr als 4000 Flughäfen (METAR und TAF Bericht).

Die verfügbaren Stationen werden durch gelbe und rote Markierungen auf der Karte dargestellt.

Führen Sie die Maus auf sie, um den Namen der Station zu sehen.

Darauf klicken, um die Beobachtung von Wetterbeobachtungen und Prognosen zu sehen.

Um die Karte zu ändern : klicken Sie auf den grünen Tasten mit einem schwarzen Kreuz Zum Vergrößern, auf den grünen Button mit einem Gedankenstrich zu verkleinern, oder auf die grünen Pfeile für benachbarte Karten.


METAR-TAF: